sensor_id;sensor_type;location;lat;lon;timestamp;temperature;humidity
36990;DHT22;22898;52.102;5.776;2022-08-19T00:01:31;25.70;83.90
36990;DHT22;22898;52.102;5.776;2022-08-19T00:03:58;25.80;83.60
36990;DHT22;22898;52.102;5.776;2022-08-19T00:06:24;25.70;83.30
36990;DHT22;22898;52.102;5.776;2022-08-19T00:08:49;25.70;83.10
36990;DHT22;22898;52.102;5.776;2022-08-19T00:11:16;25.60;82.90
36990;DHT22;22898;52.102;5.776;2022-08-19T00:13:42;25.50;83.20
36990;DHT22;22898;52.102;5.776;2022-08-19T00:16:08;25.50;83.50
36990;DHT22;22898;52.102;5.776;2022-08-19T00:18:34;25.50;83.00
36990;DHT22;22898;52.102;5.776;2022-08-19T00:21:00;25.50;83.20
36990;DHT22;22898;52.102;5.776;2022-08-19T00:23:26;25.50;82.90
36990;DHT22;22898;52.102;5.776;2022-08-19T00:25:52;25.40;82.80
36990;DHT22;22898;52.102;5.776;2022-08-19T00:28:18;25.30;83.20
36990;DHT22;22898;52.102;5.776;2022-08-19T00:30:45;25.30;83.50
36990;DHT22;22898;52.102;5.776;2022-08-19T00:33:14;25.20;83.60
36990;DHT22;22898;52.102;5.776;2022-08-19T00:35:41;25.20;83.80
36990;DHT22;22898;52.102;5.776;2022-08-19T00:38:07;25.30;83.90
36990;DHT22;22898;52.102;5.776;2022-08-19T00:40:33;25.30;83.50
36990;DHT22;22898;52.102;5.776;2022-08-19T00:42:58;25.30;83.50
36990;DHT22;22898;52.102;5.776;2022-08-19T00:45:26;25.30;84.10
36990;DHT22;22898;52.102;5.776;2022-08-19T00:47:53;25.40;84.00
36990;DHT22;22898;52.102;5.776;2022-08-19T00:50:20;25.40;83.80
36990;DHT22;22898;52.102;5.776;2022-08-19T00:52:47;25.40;83.60
36990;DHT22;22898;52.102;5.776;2022-08-19T00:55:19;25.30;83.40
36990;DHT22;22898;52.102;5.776;2022-08-19T00:58:01;25.30;82.90
36990;DHT22;22898;52.102;5.776;2022-08-19T01:00:30;25.20;83.10
36990;DHT22;22898;52.102;5.776;2022-08-19T01:02:56;25.20;83.20
36990;DHT22;22898;52.102;5.776;2022-08-19T01:05:25;25.10;83.10
36990;DHT22;22898;52.102;5.776;2022-08-19T01:07:54;25.10;82.80
36990;DHT22;22898;52.102;5.776;2022-08-19T01:10:24;25.00;82.90
36990;DHT22;22898;52.102;5.776;2022-08-19T01:12:51;24.90;83.30
36990;DHT22;22898;52.102;5.776;2022-08-19T01:15:21;25.00;82.90
36990;DHT22;22898;52.102;5.776;2022-08-19T01:17:48;25.00;82.90
36990;DHT22;22898;52.102;5.776;2022-08-19T01:20:18;25.00;82.90
36990;DHT22;22898;52.102;5.776;2022-08-19T01:22:47;25.00;82.80
36990;DHT22;22898;52.102;5.776;2022-08-19T01:25:19;25.00;82.60
36990;DHT22;22898;52.102;5.776;2022-08-19T01:27:47;25.00;82.60
36990;DHT22;22898;52.102;5.776;2022-08-19T01:30:18;24.90;82.80
36990;DHT22;22898;52.102;5.776;2022-08-19T01:32:44;24.90;82.80
36990;DHT22;22898;52.102;5.776;2022-08-19T01:35:11;24.70;83.20
36990;DHT22;22898;52.102;5.776;2022-08-19T01:37:48;24.50;84.00
36990;DHT22;22898;52.102;5.776;2022-08-19T01:40:15;24.50;83.60
36990;DHT22;22898;52.102;5.776;2022-08-19T01:42:41;24.50;83.40
36990;DHT22;22898;52.102;5.776;2022-08-19T01:45:07;24.60;83.40
36990;DHT22;22898;52.102;5.776;2022-08-19T01:47:35;24.60;83.50
36990;DHT22;22898;52.102;5.776;2022-08-19T01:50:04;24.60;83.50
36990;DHT22;22898;52.102;5.776;2022-08-19T01:52:30;24.60;83.00
36990;DHT22;22898;52.102;5.776;2022-08-19T01:54:56;24.70;83.00
36990;DHT22;22898;52.102;5.776;2022-08-19T01:57:21;24.60;83.00
36990;DHT22;22898;52.102;5.776;2022-08-19T01:59:47;24.50;83.00
36990;DHT22;22898;52.102;5.776;2022-08-19T02:02:12;24.50;83.20
36990;DHT22;22898;52.102;5.776;2022-08-19T02:04:39;24.50;83.20
36990;DHT22;22898;52.102;5.776;2022-08-19T02:07:06;24.50;83.10
36990;DHT22;22898;52.102;5.776;2022-08-19T02:09:34;24.40;83.90
36990;DHT22;22898;52.102;5.776;2022-08-19T02:12:00;24.20;85.40
36990;DHT22;22898;52.102;5.776;2022-08-19T02:14:26;24.20;84.50
36990;DHT22;22898;52.102;5.776;2022-08-19T02:16:52;24.10;84.40
36990;DHT22;22898;52.102;5.776;2022-08-19T02:19:17;24.00;84.60
36990;DHT22;22898;52.102;5.776;2022-08-19T02:21:43;24.10;84.40
36990;DHT22;22898;52.102;5.776;2022-08-19T02:24:09;24.00;84.70
36990;DHT22;22898;52.102;5.776;2022-08-19T02:26:35;23.90;84.60
36990;DHT22;22898;52.102;5.776;2022-08-19T02:29:00;23.80;84.70
36990;DHT22;22898;52.102;5.776;2022-08-19T02:31:26;23.80;84.70
36990;DHT22;22898;52.102;5.776;2022-08-19T02:33:53;23.90;84.60
36990;DHT22;22898;52.102;5.776;2022-08-19T02:36:19;23.90;84.40
36990;DHT22;22898;52.102;5.776;2022-08-19T02:38:45;23.90;85.20
36990;DHT22;22898;52.102;5.776;2022-08-19T02:41:16;24.00;84.20
36990;DHT22;22898;52.102;5.776;2022-08-19T02:43:42;24.10;83.90
36990;DHT22;22898;52.102;5.776;2022-08-19T02:46:22;24.00;83.80
36990;DHT22;22898;52.102;5.776;2022-08-19T02:48:49;24.00;84.60
36990;DHT22;22898;52.102;5.776;2022-08-19T02:51:17;24.00;84.00
36990;DHT22;22898;52.102;5.776;2022-08-19T02:53:43;24.00;84.20
36990;DHT22;22898;52.102;5.776;2022-08-19T02:56:09;24.00;83.80
36990;DHT22;22898;52.102;5.776;2022-08-19T02:58:35;24.00;83.70
36990;DHT22;22898;52.102;5.776;2022-08-19T03:01:00;24.00;84.40
36990;DHT22;22898;52.102;5.776;2022-08-19T03:03:26;24.00;83.40
36990;DHT22;22898;52.102;5.776;2022-08-19T03:06:01;24.00;83.70
36990;DHT22;22898;52.102;5.776;2022-08-19T03:08:27;24.00;83.70
36990;DHT22;22898;52.102;5.776;2022-08-19T03:10:52;23.90;83.50
36990;DHT22;22898;52.102;5.776;2022-08-19T03:13:19;24.00;83.20
36990;DHT22;22898;52.102;5.776;2022-08-19T03:15:46;23.90;83.00
36990;DHT22;22898;52.102;5.776;2022-08-19T03:18:13;23.90;83.40
36990;DHT22;22898;52.102;5.776;2022-08-19T03:20:49;23.90;83.30
36990;DHT22;22898;52.102;5.776;2022-08-19T03:23:16;23.90;83.40
36990;DHT22;22898;52.102;5.776;2022-08-19T03:25:46;23.90;83.50
36990;DHT22;22898;52.102;5.776;2022-08-19T03:28:14;23.90;83.80
36990;DHT22;22898;52.102;5.776;2022-08-19T03:30:41;23.80;83.80
36990;DHT22;22898;52.102;5.776;2022-08-19T03:33:08;23.80;83.70
36990;DHT22;22898;52.102;5.776;2022-08-19T03:35:35;23.80;83.50
36990;DHT22;22898;52.102;5.776;2022-08-19T03:38:03;23.70;83.70
36990;DHT22;22898;52.102;5.776;2022-08-19T03:40:28;23.60;84.10
36990;DHT22;22898;52.102;5.776;2022-08-19T03:42:56;23.70;84.00
36990;DHT22;22898;52.102;5.776;2022-08-19T03:45:22;23.60;83.90
36990;DHT22;22898;52.102;5.776;2022-08-19T03:47:47;23.60;84.20
36990;DHT22;22898;52.102;5.776;2022-08-19T03:50:13;23.80;83.70
36990;DHT22;22898;52.102;5.776;2022-08-19T03:52:39;23.80;83.30
36990;DHT22;22898;52.102;5.776;2022-08-19T03:55:05;23.70;83.50
36990;DHT22;22898;52.102;5.776;2022-08-19T03:57:31;23.70;83.40
36990;DHT22;22898;52.102;5.776;2022-08-19T03:59:57;23.60;83.80
36990;DHT22;22898;52.102;5.776;2022-08-19T04:02:23;23.60;84.00
36990;DHT22;22898;52.102;5.776;2022-08-19T04:04:48;23.50;84.10
36990;DHT22;22898;52.102;5.776;2022-08-19T04:07:14;23.60;83.90
36990;DHT22;22898;52.102;5.776;2022-08-19T04:09:41;23.50;84.00
36990;DHT22;22898;52.102;5.776;2022-08-19T04:12:07;23.50;83.60
36990;DHT22;22898;52.102;5.776;2022-08-19T04:14:34;23.60;83.50
36990;DHT22;22898;52.102;5.776;2022-08-19T04:17:01;23.50;83.40
36990;DHT22;22898;52.102;5.776;2022-08-19T04:19:30;23.40;83.50
36990;DHT22;22898;52.102;5.776;2022-08-19T04:21:56;23.40;83.80
36990;DHT22;22898;52.102;5.776;2022-08-19T04:24:22;23.40;83.80
36990;DHT22;22898;52.102;5.776;2022-08-19T04:26:48;23.30;84.30
36990;DHT22;22898;52.102;5.776;2022-08-19T04:29:20;23.40;84.10
36990;DHT22;22898;52.102;5.776;2022-08-19T04:31:48;23.40;83.80
36990;DHT22;22898;52.102;5.776;2022-08-19T04:34:16;23.30;84.00
36990;DHT22;22898;52.102;5.776;2022-08-19T04:36:44;23.30;83.90
36990;DHT22;22898;52.102;5.776;2022-08-19T04:39:17;23.20;85.00
36990;DHT22;22898;52.102;5.776;2022-08-19T04:41:44;23.10;83.90
36990;DHT22;22898;52.102;5.776;2022-08-19T04:44:34;23.10;84.00
36990;DHT22;22898;52.102;5.776;2022-08-19T04:47:00;23.10;84.20
36990;DHT22;22898;52.102;5.776;2022-08-19T04:49:25;23.10;84.10
36990;DHT22;22898;52.102;5.776;2022-08-19T04:51:53;23.10;84.20
36990;DHT22;22898;52.102;5.776;2022-08-19T04:54:20;23.10;84.10
36990;DHT22;22898;52.102;5.776;2022-08-19T04:56:48;23.10;84.40
36990;DHT22;22898;52.102;5.776;2022-08-19T04:59:15;22.90;85.90
36990;DHT22;22898;52.102;5.776;2022-08-19T05:01:42;22.90;85.10
36990;DHT22;22898;52.102;5.776;2022-08-19T05:04:09;22.90;85.40
36990;DHT22;22898;52.102;5.776;2022-08-19T05:06:37;22.70;86.10
36990;DHT22;22898;52.102;5.776;2022-08-19T05:09:04;22.80;85.50
36990;DHT22;22898;52.102;5.776;2022-08-19T05:11:36;22.90;85.80
36990;DHT22;22898;52.102;5.776;2022-08-19T05:14:04;22.90;86.00
36990;DHT22;22898;52.102;5.776;2022-08-19T05:16:29;23.00;86.10
36990;DHT22;22898;52.102;5.776;2022-08-19T05:18:55;23.00;86.10
36990;DHT22;22898;52.102;5.776;2022-08-19T05:21:40;23.00;86.20
36990;DHT22;22898;52.102;5.776;2022-08-19T05:24:26;23.00;86.10
36990;DHT22;22898;52.102;5.776;2022-08-19T05:26:54;23.10;86.00
36990;DHT22;22898;52.102;5.776;2022-08-19T05:29:23;23.10;86.10
36990;DHT22;22898;52.102;5.776;2022-08-19T05:31:49;23.10;86.30
36990;DHT22;22898;52.102;5.776;2022-08-19T05:34:16;23.20;86.00
36990;DHT22;22898;52.102;5.776;2022-08-19T05:36:44;23.20;86.70
36990;DHT22;22898;52.102;5.776;2022-08-19T05:39:13;23.30;85.90
36990;DHT22;22898;52.102;5.776;2022-08-19T05:41:42;23.30;85.80
36990;DHT22;22898;52.102;5.776;2022-08-19T05:44:08;23.30;86.50
36990;DHT22;22898;52.102;5.776;2022-08-19T05:46:36;23.30;86.40
36990;DHT22;22898;52.102;5.776;2022-08-19T05:49:04;23.40;86.10
36990;DHT22;22898;52.102;5.776;2022-08-19T05:51:31;23.50;85.80
36990;DHT22;22898;52.102;5.776;2022-08-19T05:53:58;23.70;85.40
36990;DHT22;22898;52.102;5.776;2022-08-19T05:56:23;23.70;85.70
36990;DHT22;22898;52.102;5.776;2022-08-19T05:58:49;23.70;86.10
36990;DHT22;22898;52.102;5.776;2022-08-19T06:01:17;23.80;86.00
36990;DHT22;22898;52.102;5.776;2022-08-19T06:03:44;23.70;88.50
36990;DHT22;22898;52.102;5.776;2022-08-19T06:06:11;23.60;89.20
36990;DHT22;22898;52.102;5.776;2022-08-19T06:08:37;23.80;88.80
36990;DHT22;22898;52.102;5.776;2022-08-19T06:13:48;24.10;89.60
36990;DHT22;22898;52.102;5.776;2022-08-19T06:16:17;24.10;90.10
36990;DHT22;22898;52.102;5.776;2022-08-19T06:18:48;24.00;90.80
36990;DHT22;22898;52.102;5.776;2022-08-19T06:21:14;23.70;92.00
36990;DHT22;22898;52.102;5.776;2022-08-19T06:23:39;23.60;92.70
36990;DHT22;22898;52.102;5.776;2022-08-19T06:26:05;23.60;93.10
36990;DHT22;22898;52.102;5.776;2022-08-19T06:28:31;23.70;93.30
36990;DHT22;22898;52.102;5.776;2022-08-19T06:30:58;23.90;93.10
36990;DHT22;22898;52.102;5.776;2022-08-19T06:33:23;24.40;92.70
36990;DHT22;22898;52.102;5.776;2022-08-19T06:35:49;24.80;92.00
36990;DHT22;22898;52.102;5.776;2022-08-19T06:38:14;24.90;91.90
36990;DHT22;22898;52.102;5.776;2022-08-19T06:40:40;24.60;92.90
36990;DHT22;22898;52.102;5.776;2022-08-19T06:43:06;24.10;93.80
36990;DHT22;22898;52.102;5.776;2022-08-19T06:45:31;23.80;94.80
36990;DHT22;22898;52.102;5.776;2022-08-19T06:47:57;23.40;95.90
36990;DHT22;22898;52.102;5.776;2022-08-19T06:50:23;23.20;96.50
36990;DHT22;22898;52.102;5.776;2022-08-19T06:52:49;23.10;97.10
36990;DHT22;22898;52.102;5.776;2022-08-19T06:55:15;22.90;97.70
36990;DHT22;22898;52.102;5.776;2022-08-19T06:57:41;23.30;97.30
36990;DHT22;22898;52.102;5.776;2022-08-19T07:00:08;23.50;97.30
36990;DHT22;22898;52.102;5.776;2022-08-19T07:02:39;23.70;96.60
36990;DHT22;22898;52.102;5.776;2022-08-19T07:05:05;23.70;96.60
36990;DHT22;22898;52.102;5.776;2022-08-19T07:07:31;23.40;97.10
36990;DHT22;22898;52.102;5.776;2022-08-19T07:09:57;23.40;97.40
36990;DHT22;22898;52.102;5.776;2022-08-19T07:12:22;23.60;97.20
36990;DHT22;22898;52.102;5.776;2022-08-19T07:14:48;24.10;96.50
36990;DHT22;22898;52.102;5.776;2022-08-19T07:17:14;24.50;96.10
36990;DHT22;22898;52.102;5.776;2022-08-19T07:19:41;24.90;94.50
36990;DHT22;22898;52.102;5.776;2022-08-19T07:22:09;24.50;95.40
36990;DHT22;22898;52.102;5.776;2022-08-19T07:24:36;24.20;96.20
36990;DHT22;22898;52.102;5.776;2022-08-19T07:27:03;23.50;97.40
36990;DHT22;22898;52.102;5.776;2022-08-19T07:29:31;23.20;98.10
36990;DHT22;22898;52.102;5.776;2022-08-19T07:31:59;23.40;97.90
36990;DHT22;22898;52.102;5.776;2022-08-19T07:34:26;24.20;96.30
36990;DHT22;22898;52.102;5.776;2022-08-19T07:36:53;24.20;96.30
36990;DHT22;22898;52.102;5.776;2022-08-19T07:39:22;24.20;96.10
36990;DHT22;22898;52.102;5.776;2022-08-19T07:41:48;23.80;96.90
36990;DHT22;22898;52.102;5.776;2022-08-19T07:44:14;23.70;97.20
36990;DHT22;22898;52.102;5.776;2022-08-19T07:46:44;24.00;96.90
36990;DHT22;22898;52.102;5.776;2022-08-19T07:49:10;24.80;95.80
36990;DHT22;22898;52.102;5.776;2022-08-19T07:51:43;25.60;94.50
36990;DHT22;22898;52.102;5.776;2022-08-19T07:54:09;26.40;93.00
36990;DHT22;22898;52.102;5.776;2022-08-19T07:56:37;26.50;92.20
36990;DHT22;22898;52.102;5.776;2022-08-19T07:59:03;26.40;92.10
36990;DHT22;22898;52.102;5.776;2022-08-19T08:01:28;26.10;93.00
36990;DHT22;22898;52.102;5.776;2022-08-19T08:03:55;26.40;92.50
36990;DHT22;22898;52.102;5.776;2022-08-19T08:06:40;26.90;91.90
36990;DHT22;22898;52.102;5.776;2022-08-19T08:09:42;27.30;91.20
36990;DHT22;22898;52.102;5.776;2022-08-19T08:12:12;27.50;90.40
36990;DHT22;22898;52.102;5.776;2022-08-19T08:14:47;27.70;90.00
36990;DHT22;22898;52.102;5.776;2022-08-19T08:17:16;27.90;89.30
36990;DHT22;22898;52.102;5.776;2022-08-19T08:19:42;28.10;88.60
36990;DHT22;22898;52.102;5.776;2022-08-19T08:22:09;28.30;87.50
36990;DHT22;22898;52.102;5.776;2022-08-19T08:24:55;27.80;87.50
36990;DHT22;22898;52.102;5.776;2022-08-19T08:27:24;27.60;88.50
36990;DHT22;22898;52.102;5.776;2022-08-19T08:29:50;27.60;87.70
36990;DHT22;22898;52.102;5.776;2022-08-19T08:32:15;27.60;88.20
36990;DHT22;22898;52.102;5.776;2022-08-19T08:34:42;27.90;87.70
36990;DHT22;22898;52.102;5.776;2022-08-19T08:37:07;28.10;85.90
36990;DHT22;22898;52.102;5.776;2022-08-19T08:39:33;28.00;86.00
36990;DHT22;22898;52.102;5.776;2022-08-19T08:45:05;26.50;90.00
36990;DHT22;22898;52.102;5.776;2022-08-19T08:47:40;26.80;88.90
36990;DHT22;22898;52.102;5.776;2022-08-19T08:50:08;27.20;86.00
36990;DHT22;22898;52.102;5.776;2022-08-19T08:52:43;27.00;87.00
36990;DHT22;22898;52.102;5.776;2022-08-19T08:55:12;27.40;85.10
36990;DHT22;22898;52.102;5.776;2022-08-19T09:02:55;27.20;85.10
36990;DHT22;22898;52.102;5.776;2022-08-19T09:05:24;26.50;88.20
36990;DHT22;22898;52.102;5.776;2022-08-19T09:08:12;26.50;87.90
36990;DHT22;22898;52.102;5.776;2022-08-19T09:10:50;26.70;85.90
36990;DHT22;22898;52.102;5.776;2022-08-19T09:13:31;26.60;86.40
36990;DHT22;22898;52.102;5.776;2022-08-19T09:16:08;26.30;88.40
36990;DHT22;22898;52.102;5.776;2022-08-19T09:18:44;26.70;87.50
36990;DHT22;22898;52.102;5.776;2022-08-19T09:21:13;26.90;87.10
36990;DHT22;22898;52.102;5.776;2022-08-19T09:23:39;26.50;88.20
36990;DHT22;22898;52.102;5.776;2022-08-19T09:26:13;26.00;88.50
36990;DHT22;22898;52.102;5.776;2022-08-19T09:28:44;25.50;90.50
36990;DHT22;22898;52.102;5.776;2022-08-19T09:31:22;26.20;89.70
36990;DHT22;22898;52.102;5.776;2022-08-19T09:33:48;26.80;88.50
36990;DHT22;22898;52.102;5.776;2022-08-19T09:36:16;27.20;85.60
36990;DHT22;22898;52.102;5.776;2022-08-19T09:38:43;27.00;86.60
36990;DHT22;22898;52.102;5.776;2022-08-19T09:41:13;27.00;87.10
36990;DHT22;22898;52.102;5.776;2022-08-19T09:43:40;27.40;85.80
36990;DHT22;22898;52.102;5.776;2022-08-19T09:46:07;27.60;83.50
36990;DHT22;22898;52.102;5.776;2022-08-19T09:48:35;27.50;83.90
36990;DHT22;22898;52.102;5.776;2022-08-19T09:51:09;27.30;84.30
36990;DHT22;22898;52.102;5.776;2022-08-19T09:53:37;27.20;84.20
36990;DHT22;22898;52.102;5.776;2022-08-19T09:56:05;26.60;87.00
36990;DHT22;22898;52.102;5.776;2022-08-19T09:58:32;26.50;87.50
36990;DHT22;22898;52.102;5.776;2022-08-19T10:00:59;27.10;86.00
36990;DHT22;22898;52.102;5.776;2022-08-19T10:03:25;27.80;83.70
36990;DHT22;22898;52.102;5.776;2022-08-19T10:05:52;27.80;82.60
36990;DHT22;22898;52.102;5.776;2022-08-19T10:08:30;27.20;85.10
36990;DHT22;22898;52.102;5.776;2022-08-19T10:10:56;27.10;85.40
36990;DHT22;22898;52.102;5.776;2022-08-19T10:13:24;27.50;84.30
36990;DHT22;22898;52.102;5.776;2022-08-19T10:16:01;28.30;82.70
36990;DHT22;22898;52.102;5.776;2022-08-19T10:18:27;28.40;81.90
36990;DHT22;22898;52.102;5.776;2022-08-19T10:21:09;28.30;82.60
36990;DHT22;22898;52.102;5.776;2022-08-19T10:23:36;28.30;81.50
36990;DHT22;22898;52.102;5.776;2022-08-19T10:26:05;28.80;80.20
36990;DHT22;22898;52.102;5.776;2022-08-19T10:28:34;28.90;79.40
36990;DHT22;22898;52.102;5.776;2022-08-19T10:31:18;29.10;79.10
36990;DHT22;22898;52.102;5.776;2022-08-19T10:33:46;29.10;78.60
36990;DHT22;22898;52.102;5.776;2022-08-19T10:36:19;28.90;79.40
36990;DHT22;22898;52.102;5.776;2022-08-19T10:38:47;29.20;78.50
36990;DHT22;22898;52.102;5.776;2022-08-19T10:41:20;29.30;78.00
36990;DHT22;22898;52.102;5.776;2022-08-19T10:43:49;28.70;79.70
36990;DHT22;22898;52.102;5.776;2022-08-19T10:46:16;28.90;79.20
36990;DHT22;22898;52.102;5.776;2022-08-19T10:48:43;29.00;77.40
36990;DHT22;22898;52.102;5.776;2022-08-19T10:51:09;29.40;77.60
36990;DHT22;22898;52.102;5.776;2022-08-19T10:53:54;29.50;77.90
36990;DHT22;22898;52.102;5.776;2022-08-19T10:56:21;29.50;77.50
36990;DHT22;22898;52.102;5.776;2022-08-19T10:59:06;29.60;77.50
36990;DHT22;22898;52.102;5.776;2022-08-19T11:01:33;30.00;76.10
36990;DHT22;22898;52.102;5.776;2022-08-19T11:04:00;30.30;75.30
36990;DHT22;22898;52.102;5.776;2022-08-19T11:06:27;30.50;75.10
36990;DHT22;22898;52.102;5.776;2022-08-19T11:08:54;31.20;73.40
36990;DHT22;22898;52.102;5.776;2022-08-19T11:11:21;31.40;72.90
36990;DHT22;22898;52.102;5.776;2022-08-19T11:13:47;31.10;72.60
36990;DHT22;22898;52.102;5.776;2022-08-19T11:16:18;31.10;71.90
36990;DHT22;22898;52.102;5.776;2022-08-19T11:18:47;30.70;72.40
36990;DHT22;22898;52.102;5.776;2022-08-19T11:21:25;30.60;72.20
36990;DHT22;22898;52.102;5.776;2022-08-19T11:23:53;30.10;73.30
36990;DHT22;22898;52.102;5.776;2022-08-19T11:26:20;30.00;73.50
36990;DHT22;22898;52.102;5.776;2022-08-19T11:28:46;30.10;73.40
36990;DHT22;22898;52.102;5.776;2022-08-19T11:31:14;30.00;73.90
36990;DHT22;22898;52.102;5.776;2022-08-19T11:33:40;29.30;77.30
36990;DHT22;22898;52.102;5.776;2022-08-19T11:36:06;28.30;81.10
36990;DHT22;22898;52.102;5.776;2022-08-19T11:38:33;28.50;79.40
36990;DHT22;22898;52.102;5.776;2022-08-19T11:41:01;28.70;79.40
36990;DHT22;22898;52.102;5.776;2022-08-19T11:43:27;29.40;76.60
36990;DHT22;22898;52.102;5.776;2022-08-19T11:45:54;30.00;74.10
36990;DHT22;22898;52.102;5.776;2022-08-19T11:48:21;30.00;74.70
36990;DHT22;22898;52.102;5.776;2022-08-19T11:50:48;29.60;75.80
36990;DHT22;22898;52.102;5.776;2022-08-19T11:53:14;30.00;75.80
36990;DHT22;22898;52.102;5.776;2022-08-19T11:55:39;29.40;75.70
36990;DHT22;22898;52.102;5.776;2022-08-19T11:58:05;28.70;77.80
36990;DHT22;22898;52.102;5.776;2022-08-19T12:00:33;28.60;77.40
36990;DHT22;22898;52.102;5.776;2022-08-19T12:03:01;28.60;78.70
36990;DHT22;22898;52.102;5.776;2022-08-19T12:05:27;29.30;77.30
36990;DHT22;22898;52.102;5.776;2022-08-19T12:07:52;30.00;75.00
36990;DHT22;22898;52.102;5.776;2022-08-19T12:10:20;30.20;74.70
36990;DHT22;22898;52.102;5.776;2022-08-19T12:12:45;30.60;73.40
36990;DHT22;22898;52.102;5.776;2022-08-19T12:15:11;30.30;74.60
36990;DHT22;22898;52.102;5.776;2022-08-19T12:17:37;30.00;75.70
36990;DHT22;22898;52.102;5.776;2022-08-19T12:20:04;30.30;74.50
36990;DHT22;22898;52.102;5.776;2022-08-19T12:22:31;30.50;74.10
36990;DHT22;22898;52.102;5.776;2022-08-19T12:24:56;31.00;72.30
36990;DHT22;22898;52.102;5.776;2022-08-19T12:27:22;31.10;71.90
36990;DHT22;22898;52.102;5.776;2022-08-19T12:29:47;30.70;72.20
36990;DHT22;22898;52.102;5.776;2022-08-19T12:32:15;30.90;71.60
36990;DHT22;22898;52.102;5.776;2022-08-19T12:34:40;30.90;73.10
36990;DHT22;22898;52.102;5.776;2022-08-19T12:37:07;30.30;74.40
36990;DHT22;22898;52.102;5.776;2022-08-19T12:39:41;30.70;73.90
36990;DHT22;22898;52.102;5.776;2022-08-19T12:42:11;31.20;72.60
36990;DHT22;22898;52.102;5.776;2022-08-19T12:44:39;31.60;71.80
36990;DHT22;22898;52.102;5.776;2022-08-19T12:47:06;32.00;70.30
36990;DHT22;22898;52.102;5.776;2022-08-19T12:49:33;31.70;72.10
36990;DHT22;22898;52.102;5.776;2022-08-19T12:52:06;31.20;72.90
36990;DHT22;22898;52.102;5.776;2022-08-19T12:54:33;30.70;73.90
36990;DHT22;22898;52.102;5.776;2022-08-19T12:56:59;30.80;74.20
36990;DHT22;22898;52.102;5.776;2022-08-19T12:59:26;31.30;72.40
36990;DHT22;22898;52.102;5.776;2022-08-19T13:01:51;31.30;72.00
36990;DHT22;22898;52.102;5.776;2022-08-19T13:04:18;31.80;70.10
36990;DHT22;22898;52.102;5.776;2022-08-19T13:06:44;31.80;70.60
36990;DHT22;22898;52.102;5.776;2022-08-19T13:09:10;32.40;69.10
36990;DHT22;22898;52.102;5.776;2022-08-19T13:11:37;32.10;69.70
36990;DHT22;22898;52.102;5.776;2022-08-19T13:14:03;32.10;70.90
36990;DHT22;22898;52.102;5.776;2022-08-19T13:16:29;32.10;69.90
36990;DHT22;22898;52.102;5.776;2022-08-19T13:18:56;32.10;69.50
36990;DHT22;22898;52.102;5.776;2022-08-19T13:21:25;31.70;71.00
36990;DHT22;22898;52.102;5.776;2022-08-19T13:23:51;31.40;72.00
36990;DHT22;22898;52.102;5.776;2022-08-19T13:26:18;31.40;72.00
36990;DHT22;22898;52.102;5.776;2022-08-19T13:28:44;31.70;70.50
36990;DHT22;22898;52.102;5.776;2022-08-19T13:31:31;31.80;71.20
36990;DHT22;22898;52.102;5.776;2022-08-19T13:34:17;31.40;72.00
36990;DHT22;22898;52.102;5.776;2022-08-19T13:36:44;31.20;73.50
36990;DHT22;22898;52.102;5.776;2022-08-19T13:39:10;31.40;72.80
36990;DHT22;22898;52.102;5.776;2022-08-19T13:41:36;30.90;74.40
36990;DHT22;22898;52.102;5.776;2022-08-19T13:44:03;31.20;74.00
36990;DHT22;22898;52.102;5.776;2022-08-19T13:46:30;31.20;74.10
36990;DHT22;22898;52.102;5.776;2022-08-19T13:48:56;31.40;73.50
36990;DHT22;22898;52.102;5.776;2022-08-19T13:51:22;31.60;73.30
36990;DHT22;22898;52.102;5.776;2022-08-19T13:53:48;31.30;74.20
36990;DHT22;22898;52.102;5.776;2022-08-19T13:56:17;30.70;76.20
36990;DHT22;22898;52.102;5.776;2022-08-19T13:58:43;29.90;79.10
36990;DHT22;22898;52.102;5.776;2022-08-19T14:01:09;29.60;81.80
36990;DHT22;22898;52.102;5.776;2022-08-19T14:03:36;29.20;83.90
36990;DHT22;22898;52.102;5.776;2022-08-19T14:06:02;28.80;85.30
36990;DHT22;22898;52.102;5.776;2022-08-19T14:08:27;28.70;86.10
36990;DHT22;22898;52.102;5.776;2022-08-19T14:10:56;28.50;87.20
36990;DHT22;22898;52.102;5.776;2022-08-19T14:13:23;28.60;87.40
36990;DHT22;22898;52.102;5.776;2022-08-19T14:15:49;28.60;88.50
36990;DHT22;22898;52.102;5.776;2022-08-19T14:18:16;28.40;89.20
36990;DHT22;22898;52.102;5.776;2022-08-19T14:20:42;28.50;89.10
36990;DHT22;22898;52.102;5.776;2022-08-19T14:23:08;28.40;89.20
36990;DHT22;22898;52.102;5.776;2022-08-19T14:25:34;28.40;90.00
36990;DHT22;22898;52.102;5.776;2022-08-19T14:28:00;28.40;90.30
36990;DHT22;22898;52.102;5.776;2022-08-19T14:30:29;27.90;91.80
36990;DHT22;22898;52.102;5.776;2022-08-19T14:32:55;27.70;92.20
36990;DHT22;22898;52.102;5.776;2022-08-19T14:35:22;27.90;92.30
36990;DHT22;22898;52.102;5.776;2022-08-19T14:37:48;27.80;92.40
36990;DHT22;22898;52.102;5.776;2022-08-19T14:40:17;27.40;92.90
36990;DHT22;22898;52.102;5.776;2022-08-19T14:42:45;27.30;93.40
36990;DHT22;22898;52.102;5.776;2022-08-19T14:45:12;27.40;92.70
36990;DHT22;22898;52.102;5.776;2022-08-19T14:47:38;27.50;92.50
36990;DHT22;22898;52.102;5.776;2022-08-19T14:50:06;27.40;92.80
36990;DHT22;22898;52.102;5.776;2022-08-19T14:52:32;27.60;92.40
36990;DHT22;22898;52.102;5.776;2022-08-19T14:54:57;27.70;92.60
36990;DHT22;22898;52.102;5.776;2022-08-19T14:57:23;27.80;92.00
36990;DHT22;22898;52.102;5.776;2022-08-19T14:59:49;28.10;92.00
36990;DHT22;22898;52.102;5.776;2022-08-19T15:02:14;28.20;92.30
36990;DHT22;22898;52.102;5.776;2022-08-19T15:04:40;28.20;92.80
36990;DHT22;22898;52.102;5.776;2022-08-19T15:07:05;28.30;92.60
36990;DHT22;22898;52.102;5.776;2022-08-19T15:09:32;28.40;92.60
36990;DHT22;22898;52.102;5.776;2022-08-19T15:11:57;28.30;92.40
36990;DHT22;22898;52.102;5.776;2022-08-19T15:14:25;28.40;92.40
36990;DHT22;22898;52.102;5.776;2022-08-19T15:16:52;28.50;92.40
36990;DHT22;22898;52.102;5.776;2022-08-19T15:19:17;28.70;92.30
36990;DHT22;22898;52.102;5.776;2022-08-19T15:21:43;29.00;92.20
36990;DHT22;22898;52.102;5.776;2022-08-19T15:24:09;28.80;91.80
36990;DHT22;22898;52.102;5.776;2022-08-19T15:26:35;28.70;92.50
36990;DHT22;22898;52.102;5.776;2022-08-19T15:29:01;29.00;91.70
36990;DHT22;22898;52.102;5.776;2022-08-19T15:31:27;29.00;92.10
36990;DHT22;22898;52.102;5.776;2022-08-19T15:33:53;29.20;91.70
36990;DHT22;22898;52.102;5.776;2022-08-19T15:36:22;29.30;91.40
36990;DHT22;22898;52.102;5.776;2022-08-19T15:38:48;29.40;91.00
36990;DHT22;22898;52.102;5.776;2022-08-19T15:41:25;29.60;90.60
36990;DHT22;22898;52.102;5.776;2022-08-19T15:43:53;29.50;91.00
36990;DHT22;22898;52.102;5.776;2022-08-19T15:46:21;29.50;91.10